createdAt,value
2022-08-14T00:02:14.396Z,54.93
2022-08-14T00:04:44.919Z,54.86
2022-08-14T00:07:13.906Z,54.81
2022-08-14T00:10:02.129Z,55.03
2022-08-14T00:12:39.171Z,54.91
2022-08-14T00:15:18.999Z,55.25
2022-08-14T00:17:53.575Z,55.28
2022-08-14T00:20:35.964Z,55.62
2022-08-14T00:23:16.641Z,55.74
2022-08-14T00:25:58.612Z,55.58
2022-08-14T00:28:36.075Z,55.36
2022-08-14T00:31:08.103Z,55.36
2022-08-14T00:33:39.258Z,55.25
2022-08-14T00:36:37.635Z,55.18
2022-08-14T00:39:14.794Z,55.40
2022-08-14T00:45:55.286Z,55.63
2022-08-14T00:48:34.723Z,55.55
2022-08-14T00:51:07.955Z,55.87
2022-08-14T00:53:36.639Z,55.73
2022-08-14T00:56:08.598Z,55.88
2022-08-14T00:58:45.260Z,55.76
2022-08-14T01:01:16.728Z,55.82
2022-08-14T01:03:45.645Z,55.49
2022-08-14T01:06:16.959Z,55.83
2022-08-14T01:08:52.170Z,55.52
2022-08-14T01:11:35.649Z,55.37
2022-08-14T01:14:25.266Z,55.24
2022-08-14T01:16:55.399Z,55.43
2022-08-14T01:19:24.995Z,55.50
2022-08-14T01:21:53.357Z,55.57
2022-08-14T01:24:30.820Z,55.43
2022-08-14T01:27:02.697Z,55.55
2022-08-14T01:29:59.034Z,55.79
2022-08-14T01:32:23.073Z,55.66
2022-08-14T01:35:17.701Z,55.46
2022-08-14T01:37:44.129Z,55.88
2022-08-14T01:40:12.169Z,55.93
2022-08-14T01:42:44.704Z,56.01
2022-08-14T01:45:12.119Z,56.16
2022-08-14T01:47:40.252Z,55.96
2022-08-14T01:50:10.163Z,55.86
2022-08-14T01:52:58.859Z,56.01
2022-08-14T01:55:27.201Z,55.70
2022-08-14T01:58:19.014Z,55.83
2022-08-14T02:00:43.187Z,56.11
2022-08-14T02:03:15.930Z,55.79
2022-08-14T02:05:43.260Z,55.75
2022-08-14T02:08:10.752Z,56.06
2022-08-14T02:10:46.643Z,55.96
2022-08-14T02:13:16.758Z,55.80
2022-08-14T02:15:45.745Z,56.15
2022-08-14T02:18:16.152Z,56.13
2022-08-14T02:20:43.416Z,56.29
2022-08-14T02:23:11.475Z,56.25
2022-08-14T02:25:39.469Z,55.79
2022-08-14T02:28:22.182Z,56.12
2022-08-14T02:30:54.574Z,55.99
2022-08-14T02:33:21.880Z,56.13
2022-08-14T02:35:53.442Z,55.98
2022-08-14T02:38:35.102Z,56.27
2022-08-14T02:45:12.543Z,56.34
2022-08-14T02:47:39.726Z,56.35
2022-08-14T02:50:15.248Z,56.64
2022-08-14T02:53:05.707Z,56.65
2022-08-14T02:55:32.073Z,56.46
2022-08-14T02:58:03.573Z,56.43
2022-08-14T03:00:35.078Z,56.25
2022-08-14T03:03:07.841Z,56.15
2022-08-14T03:05:36.993Z,56.47
2022-08-14T03:08:15.995Z,56.52
2022-08-14T03:10:48.736Z,56.45
2022-08-14T03:13:21.452Z,56.49
2022-08-14T03:15:56.111Z,56.47
2022-08-14T03:18:31.512Z,56.31
2022-08-14T03:21:07.445Z,56.55
2022-08-14T03:23:37.681Z,56.20
2022-08-14T03:26:18.262Z,56.32
2022-08-14T03:28:57.387Z,56.34
2022-08-14T03:35:37.442Z,56.54
2022-08-14T03:39:12.192Z,56.58
2022-08-14T03:40:58.124Z,56.73
2022-08-14T03:43:28.423Z,56.74
2022-08-14T03:45:59.785Z,56.87
2022-08-14T03:48:31.112Z,57.04
2022-08-14T03:55:12.512Z,57.07
2022-08-14T03:57:42.681Z,56.93
2022-08-14T04:00:27.692Z,56.86
2022-08-14T04:03:02.158Z,56.85
2022-08-14T04:05:29.867Z,56.64
2022-08-14T04:08:28.956Z,56.80
2022-08-14T04:14:57.173Z,57.00
2022-08-14T04:17:24.998Z,56.97
2022-08-14T04:19:53.422Z,56.97
2022-08-14T04:22:21.972Z,57.07
2022-08-14T04:24:50.061Z,57.03
2022-08-14T04:27:18.590Z,57.09
2022-08-14T04:29:46.164Z,56.73
2022-08-14T04:33:01.778Z,56.81
2022-08-14T04:35:07.841Z,56.89
2022-08-14T04:37:38.866Z,56.97
2022-08-14T04:40:09.025Z,57.07
2022-08-14T04:42:37.121Z,56.92
2022-08-14T04:45:14.545Z,57.09
2022-08-14T04:51:56.442Z,57.33
2022-08-14T04:54:25.224Z,57.63
2022-08-14T04:56:54.362Z,57.77
2022-08-14T04:59:24.328Z,57.86
2022-08-14T05:13:47.406Z,58.48
2022-08-14T05:16:20.772Z,58.42
2022-08-14T05:22:41.056Z,58.66
2022-08-14T05:25:09.920Z,58.60
2022-08-14T05:31:20.676Z,58.77
2022-08-14T05:33:56.574Z,58.83
2022-08-14T05:36:25.114Z,58.72
2022-08-14T05:38:53.724Z,58.93
2022-08-14T05:41:21.789Z,58.97
2022-08-14T05:43:49.557Z,58.85
2022-08-14T05:46:20.877Z,58.91
2022-08-14T05:48:57.303Z,59.04
2022-08-14T05:51:27.186Z,59.00
2022-08-14T05:54:01.701Z,58.90
2022-08-14T05:56:44.292Z,58.82
2022-08-14T05:59:12.083Z,58.96
2022-08-14T06:01:39.682Z,59.11
2022-08-14T06:04:07.376Z,59.24
2022-08-14T06:06:38.657Z,59.41
2022-08-14T06:09:06.890Z,59.44
2022-08-14T06:19:11.213Z,59.08
2022-08-14T06:21:40.531Z,59.18
2022-08-14T06:24:10.314Z,59.40
2022-08-14T06:26:51.952Z,59.44
2022-08-14T06:29:24.670Z,59.65
2022-08-14T06:35:44.171Z,59.74
2022-08-14T06:38:23.429Z,59.54
2022-08-14T06:40:53.200Z,59.63
2022-08-14T06:47:34.360Z,59.60
2022-08-14T06:50:03.526Z,59.48
2022-08-14T06:52:32.674Z,59.31
2022-08-14T06:54:59.888Z,58.91
2022-08-14T06:57:40.142Z,58.83
2022-08-14T07:00:22.288Z,58.77
2022-08-14T07:02:54.908Z,58.70
2022-08-14T07:05:23.495Z,57.90
2022-08-14T07:11:42.683Z,57.04
2022-08-14T07:18:14.206Z,55.41
2022-08-14T07:20:42.905Z,54.97
2022-08-14T07:23:20.951Z,55.78
2022-08-14T07:25:51.671Z,56.78
2022-08-14T07:28:24.683Z,57.68
2022-08-14T07:30:54.576Z,57.67
2022-08-14T07:33:24.623Z,57.42
2022-08-14T07:35:59.771Z,57.03
2022-08-14T07:38:35.748Z,56.39
2022-08-14T07:41:14.384Z,56.02
2022-08-14T07:43:55.169Z,55.79
2022-08-14T07:46:28.263Z,55.57
2022-08-14T07:52:39.045Z,55.07
2022-08-14T07:55:11.791Z,54.97
2022-08-14T07:57:40.799Z,54.38
2022-08-14T08:00:31.295Z,54.20
2022-08-14T08:03:00.361Z,53.74
2022-08-14T08:09:10.342Z,53.17
2022-08-14T08:15:21.710Z,51.23
2022-08-14T08:17:53.830Z,50.13
2022-08-14T08:20:29.288Z,50.03
2022-08-14T08:22:57.707Z,49.88
2022-08-14T08:25:39.866Z,49.71
2022-08-14T08:32:43.856Z,47.26
2022-08-14T08:39:16.598Z,47.39
2022-08-14T08:41:50.668Z,47.75
2022-08-14T08:44:31.938Z,48.23
2022-08-14T08:47:03.477Z,48.33
2022-08-14T08:49:43.309Z,48.76
2022-08-14T08:56:30.606Z,47.95
2022-08-14T08:59:20.847Z,47.04
2022-08-14T09:01:57.887Z,46.41
2022-08-14T09:04:45.335Z,46.37
2022-08-14T09:07:27.531Z,43.17
2022-08-14T09:09:59.866Z,42.90
2022-08-14T09:12:33.141Z,42.06
2022-08-14T09:19:00.325Z,39.88
2022-08-14T09:21:31.398Z,37.78
2022-08-14T09:24:28.834Z,37.95
2022-08-14T09:26:49.522Z,37.22
2022-08-14T09:29:22.880Z,37.41
2022-08-14T09:31:58.131Z,37.22
2022-08-14T09:34:58.457Z,35.38
2022-08-14T09:37:48.331Z,35.18
2022-08-14T09:40:59.684Z,34.69
2022-08-14T09:44:04.633Z,34.53
2022-08-14T09:46:35.366Z,30.05
2022-08-14T09:49:16.350Z,30.12
2022-08-14T09:51:58.455Z,31.39
2022-08-14T09:54:47.486Z,33.54
2022-08-14T09:57:30.197Z,35.59
2022-08-14T09:59:57.806Z,34.26
2022-08-14T10:10:43.681Z,31.54
2022-08-14T10:13:26.766Z,31.99
2022-08-14T10:20:03.709Z,31.05
2022-08-14T10:23:12.519Z,32.67
2022-08-14T10:29:31.341Z,31.00
2022-08-14T10:36:00.862Z,31.11
2022-08-14T10:38:33.855Z,31.02
2022-08-14T10:41:16.839Z,31.21
2022-08-14T10:44:04.632Z,31.60
2022-08-14T10:50:44.347Z,28.73
2022-08-14T10:53:13.504Z,28.45
2022-08-14T10:59:57.021Z,29.17
2022-08-14T11:02:54.050Z,29.71
2022-08-14T11:05:25.486Z,28.03
2022-08-14T11:07:59.731Z,27.40
2022-08-14T11:10:57.753Z,27.80
2022-08-14T11:13:31.710Z,28.51
2022-08-14T11:16:54.557Z,27.64
2022-08-14T11:23:38.227Z,27.00
2022-08-14T11:26:10.301Z,27.48
2022-08-14T11:32:50.696Z,25.76
2022-08-14T11:35:25.831Z,25.32
2022-08-14T11:38:11.753Z,24.81
2022-08-14T11:40:39.910Z,25.68
2022-08-14T11:43:09.281Z,25.46
2022-08-14T11:49:52.009Z,23.64
2022-08-14T11:52:19.576Z,24.27
2022-08-14T11:54:58.870Z,23.53
2022-08-14T11:57:26.318Z,23.16
2022-08-14T12:00:14.852Z,23.83
2022-08-14T12:03:03.301Z,26.94
2022-08-14T12:05:40.148Z,25.96
2022-08-14T12:08:13.377Z,26.29
2022-08-14T12:14:56.084Z,26.09
2022-08-14T12:17:31.910Z,26.35
2022-08-14T12:20:30.137Z,26.61
2022-08-14T12:27:01.255Z,25.81
2022-08-14T12:29:28.473Z,26.42
2022-08-14T12:32:04.633Z,25.69
2022-08-14T12:34:34.929Z,25.25
2022-08-14T12:46:40.598Z,25.40
2022-08-14T12:49:17.928Z,25.01
2022-08-14T12:56:21.643Z,23.69
2022-08-14T13:02:59.065Z,23.71
2022-08-14T13:05:31.879Z,24.73
2022-08-14T13:08:05.568Z,24.29
2022-08-14T13:15:27.143Z,23.40
2022-08-14T13:17:58.109Z,22.01
2022-08-14T13:20:27.856Z,22.68
2022-08-14T13:39:36.714Z,20.70
2022-08-14T13:42:08.316Z,21.80
2022-08-14T13:44:38.119Z,20.18
2022-08-14T13:47:10.939Z,21.85
2022-08-14T13:49:40.165Z,20.19
2022-08-14T13:52:14.592Z,21.76
2022-08-14T13:59:44.151Z,21.24
2022-08-14T14:06:25.282Z,19.21
2022-08-14T14:08:59.145Z,20.73
2022-08-14T14:11:29.825Z,19.50
2022-08-14T14:13:58.965Z,18.19
2022-08-14T14:16:30.887Z,18.52
2022-08-14T14:19:04.475Z,18.94
2022-08-14T14:21:34.491Z,18.30
2022-08-14T14:28:02.021Z,18.30
2022-08-14T14:30:51.828Z,19.09
2022-08-14T14:33:44.716Z,20.24
2022-08-14T14:36:07.796Z,19.54
2022-08-14T14:38:40.281Z,20.27
2022-08-14T14:41:08.662Z,20.83
2022-08-14T14:43:41.542Z,21.48
2022-08-14T14:46:13.406Z,21.97
2022-08-14T14:48:46.755Z,22.44
2022-08-14T14:51:21.779Z,22.49
2022-08-14T14:53:49.199Z,22.03
2022-08-14T14:56:51.688Z,22.37
2022-08-14T14:59:05.065Z,22.71
2022-08-14T15:05:33.139Z,22.17
2022-08-14T15:12:00.030Z,22.27
2022-08-14T15:14:55.498Z,22.58
2022-08-14T15:17:35.021Z,22.62
2022-08-14T15:24:02.208Z,22.76
2022-08-14T15:26:32.540Z,22.77
2022-08-14T15:29:06.431Z,23.40
2022-08-14T15:32:08.700Z,23.29
2022-08-14T15:34:46.112Z,23.10
2022-08-14T15:37:20.373Z,23.28
2022-08-14T15:39:52.655Z,23.13
2022-08-14T15:42:22.083Z,22.58
2022-08-14T15:44:57.272Z,23.33
2022-08-14T15:47:31.027Z,23.42
2022-08-14T15:50:01.253Z,23.07
2022-08-14T15:52:35.307Z,23.44
2022-08-14T15:55:09.084Z,23.78
2022-08-14T15:57:39.530Z,23.73
2022-08-14T16:00:43.458Z,24.18
2022-08-14T16:03:12.205Z,24.11
2022-08-14T16:05:41.354Z,24.41
2022-08-14T16:08:28.956Z,24.73
2022-08-14T16:11:00.806Z,24.66
2022-08-14T16:13:39.276Z,25.47
2022-08-14T16:16:49.813Z,25.05
2022-08-14T16:19:45.726Z,26.07
2022-08-14T16:22:59.241Z,26.35
2022-08-14T16:29:10.872Z,27.31
2022-08-14T16:31:38.833Z,27.74
2022-08-14T16:34:44.469Z,28.52
2022-08-14T16:36:55.160Z,28.46
2022-08-14T16:39:23.993Z,28.73
2022-08-14T16:41:53.148Z,29.98
2022-08-14T16:44:33.789Z,30.31
2022-08-14T16:47:05.473Z,30.33
2022-08-14T16:50:02.941Z,30.73
2022-08-14T16:52:26.346Z,31.34
2022-08-14T16:59:20.843Z,32.44
2022-08-14T17:06:25.693Z,33.10
2022-08-14T17:12:45.027Z,34.24
2022-08-14T17:15:15.005Z,34.40
2022-08-14T17:17:57.987Z,35.02
2022-08-14T17:24:57.701Z,35.65
2022-08-14T17:31:58.000Z,36.31
2022-08-14T17:34:46.108Z,36.77
2022-08-14T17:37:29.230Z,36.77
2022-08-14T17:52:34.781Z,37.86
2022-08-14T17:56:05.476Z,38.27
2022-08-14T17:58:41.897Z,38.79
2022-08-14T18:05:10.908Z,38.87
2022-08-14T18:08:00.429Z,39.14
2022-08-14T18:14:31.570Z,39.50
2022-08-14T18:17:02.415Z,39.34
2022-08-14T18:19:34.572Z,39.67
2022-08-14T18:22:04.057Z,39.68
2022-08-14T18:24:31.989Z,39.92
2022-08-14T18:27:23.045Z,40.01
2022-08-14T18:29:55.460Z,40.18
2022-08-14T18:32:32.755Z,40.43
2022-08-14T18:35:11.486Z,40.89
2022-08-14T18:37:42.542Z,40.63
2022-08-14T18:44:10.634Z,41.39
2022-08-14T18:50:31.310Z,41.89
2022-08-14T18:53:10.614Z,41.89
2022-08-14T18:55:53.544Z,42.03
2022-08-14T19:11:24.091Z,43.01
2022-08-14T19:14:05.180Z,43.22
2022-08-14T19:21:01.875Z,43.46
2022-08-14T19:23:42.115Z,43.33
2022-08-14T19:26:33.878Z,43.41
2022-08-14T19:29:35.891Z,43.74
2022-08-14T19:32:36.482Z,44.21
2022-08-14T19:35:24.690Z,44.14
2022-08-14T19:38:08.865Z,44.33
2022-08-14T19:40:56.222Z,44.33
2022-08-14T19:43:50.850Z,44.67
2022-08-14T19:55:18.514Z,44.78
2022-08-14T19:57:57.885Z,44.74
2022-08-14T20:00:29.059Z,44.63
2022-08-14T20:03:10.175Z,44.63
2022-08-14T20:05:42.811Z,44.48
2022-08-14T20:12:29.296Z,44.99
2022-08-14T20:15:11.306Z,44.56
2022-08-14T20:22:34.699Z,45.04
2022-08-14T20:24:54.145Z,44.75
2022-08-14T20:27:33.541Z,44.80
2022-08-14T20:30:35.694Z,44.82
2022-08-14T20:33:11.190Z,44.72
2022-08-14T20:35:49.045Z,45.24
2022-08-14T20:38:30.938Z,45.14
2022-08-14T20:45:13.316Z,44.88
2022-08-14T20:47:53.595Z,45.00
2022-08-14T20:50:28.810Z,45.84
2022-08-14T20:52:59.517Z,45.58
2022-08-14T20:55:41.705Z,45.48
2022-08-14T20:58:44.242Z,45.97
2022-08-14T21:01:19.738Z,46.31
2022-08-14T21:03:56.795Z,46.23
2022-08-14T21:07:23.012Z,46.60
2022-08-14T21:10:05.660Z,46.83
2022-08-14T21:12:35.286Z,47.09
2022-08-14T21:15:11.137Z,46.93
2022-08-14T21:17:39.563Z,46.97
2022-08-14T21:20:25.938Z,47.28
2022-08-14T21:22:56.574Z,47.19
2022-08-14T21:25:29.004Z,47.24
2022-08-14T21:28:06.853Z,47.11
2022-08-14T21:30:46.636Z,47.28
2022-08-14T21:33:19.615Z,47.67
2022-08-14T21:35:54.778Z,47.53
2022-08-14T21:38:33.491Z,47.40
2022-08-14T21:41:41.539Z,47.54
2022-08-14T21:44:01.638Z,47.54
2022-08-14T21:46:30.694Z,47.60
2022-08-14T21:48:57.932Z,47.57
2022-08-14T21:51:53.400Z,47.57
2022-08-14T21:58:52.058Z,47.82
2022-08-14T22:01:10.731Z,47.76
2022-08-14T22:03:46.903Z,48.04
2022-08-14T22:06:28.646Z,48.27
2022-08-14T22:08:59.531Z,47.98
2022-08-14T22:11:28.508Z,48.61
2022-08-14T22:13:56.383Z,48.71
2022-08-14T22:17:02.139Z,48.76
2022-08-14T22:19:20.316Z,48.59
2022-08-14T22:21:50.896Z,49.05
2022-08-14T22:24:37.514Z,48.80
2022-08-14T22:31:23.010Z,49.53
2022-08-14T22:33:57.792Z,49.51
2022-08-14T22:36:26.219Z,49.64
2022-08-14T22:38:55.479Z,49.56
2022-08-14T22:41:31.520Z,49.83
2022-08-14T22:44:14.843Z,49.70
2022-08-14T22:50:55.156Z,49.89
2022-08-14T22:53:22.789Z,50.09
2022-08-14T22:55:52.042Z,50.18
2022-08-14T22:58:30.569Z,50.35
2022-08-14T23:01:00.149Z,50.44
2022-08-14T23:03:29.314Z,50.22
2022-08-14T23:05:56.638Z,50.47
2022-08-14T23:08:59.797Z,50.65
2022-08-14T23:11:13.792Z,50.44
2022-08-14T23:13:43.376Z,50.38
2022-08-14T23:16:19.826Z,50.02
2022-08-14T23:18:53.758Z,50.35
2022-08-14T23:21:24.651Z,50.35
2022-08-14T23:23:57.610Z,49.96
2022-08-14T23:26:48.989Z,50.14
2022-08-14T23:29:17.950Z,49.87
2022-08-14T23:31:45.373Z,50.20
2022-08-14T23:34:20.653Z,50.42
2022-08-14T23:36:55.512Z,50.18
2022-08-14T23:39:32.495Z,50.35
2022-08-14T23:42:09.093Z,50.38
2022-08-14T23:44:38.102Z,50.47
2022-08-14T23:47:10.721Z,50.30
2022-08-14T23:50:01.211Z,50.12
2022-08-14T23:52:51.016Z,50.02
2022-08-14T23:55:16.953Z,49.92
2022-08-14T23:57:57.490Z,49.63
